Data Viewer
| City | State | Eastern Time | Source | Temp | DewPt | RH | BP | 5 Min Precip | Wind Speed | Wind Dir | 5 Min Wind Max | 5 Min Wind Max Dir |
|---|---|---|---|---|---|---|---|---|---|---|---|---|
| New York LGA | NY | 2026-05-03 21:35 | ASOS | 59 | 23 | 25 | 29.88 | 9 | WSW | |||
| New York LGA | NY | 2026-05-04 11:51 | ASOS | 67 | 33 | 28 | 29.89 | 14 | SW | |||
| New York LGA | NY | 2026-05-04 14:30 | ASOS | 70 | 36 | 28 | 29.83 | 14 | SW | |||
| New York LGA | NY | 2026-05-04 14:25 | ASOS | 72 | 36 | 27 | 29.83 | 13 | SW | |||
| New York LGA | NY | 2026-05-04 14:20 | ASOS | 70 | 36 | 28 | 29.84 | 20 | SSW | |||
| New York LGA | NY | 2026-05-04 14:15 | ASOS | 70 | 34 | 26 | 29.84 | 16 | SW | |||
| New York LGA | NY | 2026-05-04 13:51 | ASOS | 70 | 35 | 28 | 29.85 | 17 | SW | |||
| New York LGA | NY | 2026-05-04 13:35 | ASOS | 70 | 36 | 28 | 29.85 | 15 | WSW | |||
| New York LGA | NY | 2026-05-04 13:30 | ASOS | 70 | 36 | 28 | 29.85 | 13 | SSW | |||
| New York LGA | NY | 2026-05-04 13:25 | ASOS | 70 | 36 | 28 | 29.85 | 15 | SSW | |||
| New York LGA | NY | 2026-05-04 13:20 | ASOS | 70 | 36 | 28 | 29.85 | 17 | SW | |||
| New York LGA | NY | 2026-05-04 12:51 | ASOS | 69 | 35 | 29 | 29.86 | 12 | SW | |||
| New York LGA | NY | 2026-05-04 12:35 | ASOS | 70 | 36 | 28 | 29.87 | 12 | SSW | |||
| New York LGA | NY | 2026-05-04 12:25 | ASOS | 66 | 34 | 30 | 29.87 | 15 | SSW | |||
| New York LGA | NY | 2026-05-04 12:20 | ASOS | 68 | 34 | 28 | 29.88 | 14 | SSW | |||
| New York LGA | NY | 2026-05-04 12:15 | ASOS | 68 | 34 | 28 | 29.88 | 17 | SSW | |||
| New York LGA | NY | 2026-05-04 11:30 | ASOS | 66 | 34 | 30 | 29.89 | 14 | SW | |||
| New York LGA | NY | 2026-05-04 15:20 | ASOS | 72 | 36 | 27 | 29.82 | 15 | SSW | |||
| New York LGA | NY | 2026-05-04 11:25 | ASOS | 66 | 32 | 28 | 29.90 | 16 | SW | |||
| New York LGA | NY | 2026-05-04 11:20 | ASOS | 66 | 34 | 30 | 29.90 | 14 | SSW | |||
| New York LGA | NY | 2026-05-04 11:15 | ASOS | 66 | 34 | 30 | 29.90 | 17 | SSW | |||
| New York LGA | NY | 2026-05-04 10:51 | ASOS | 65 | 35 | 33 | 29.91 | 14 | SW | |||
| New York LGA | NY | 2026-05-04 10:25 | ASOS | 63 | 35 | 36 | 29.92 | 13 | SW | |||
| New York LGA | NY | 2026-05-04 10:20 | ASOS | 63 | 35 | 36 | 29.92 | 16 | SW | |||
| New York LGA | NY | 2026-05-04 10:15 | ASOS | 63 | 35 | 36 | 29.92 | 14 | SW | |||
| New York LGA | NY | 2026-05-04 09:51 | ASOS | 62 | 36 | 38 | 29.92 | 13 | SW | |||
| New York LGA | NY | 2026-05-04 09:35 | ASOS | 61 | 35 | 39 | 29.92 | 13 | SW | |||
| New York LGA | NY | 2026-05-04 09:30 | ASOS | 61 | 35 | 39 | 29.93 | 10 | SW | |||
| New York LGA | NY | 2026-05-04 09:25 | ASOS | 61 | 35 | 39 | 29.93 | 12 | SW | |||
| New York LGA | NY | 2026-05-04 09:20 | ASOS | 59 | 35 | 41 | 29.93 | 10 | SW | |||
| New York LGA | NY | 2026-05-04 09:15 | ASOS | 59 | 35 | 41 | 29.93 | 10 | SSW | |||
| New York LGA | NY | 2026-05-04 08:51 | ASOS | 58 | 37 | 46 | 29.94 | 12 | SW | |||
| New York LGA | NY | 2026-05-04 14:51 | ASOS | 71 | 35 | 27 | 29.83 | 13 | WSW | |||
| New York LGA | NY | 2026-05-04 15:25 | ASOS | 72 | 34 | 25 | 29.81 | 13 | SW | |||
| New York LGA | NY | 2026-05-04 08:30 | ASOS | 55 | 37 | 51 | 29.94 | 12 | SW | |||
| New York LGA | NY | 2026-05-04 18:15 | ASOS | 63 | 46 | 55 | 29.79 | 15 | SSE | |||
| New York LGA | NY | 2026-05-04 21:15 | ASOS | 63 | 44 | 52 | 29.84 | 13 | S | |||
| New York LGA | NY | 2026-05-04 20:51 | ASOS | 64 | 46 | 52 | 29.83 | 13 | S | |||
| New York LGA | NY | 2026-05-04 20:30 | ASOS | 64 | 46 | 52 | 29.82 | 13 | S | |||
| New York LGA | NY | 2026-05-04 20:25 | ASOS | 63 | 46 | 55 | 29.82 | 12 | S | |||
| New York LGA | NY | 2026-05-04 20:20 | ASOS | 63 | 46 | 55 | 29.82 | 13 | S | |||
| New York LGA | NY | 2026-05-04 20:15 | ASOS | 63 | 46 | 55 | 29.82 | 10 | S | |||
| New York LGA | NY | 2026-05-04 19:51 | ASOS | 63 | 47 | 56 | 29.81 | 9 | S | |||
| New York LGA | NY | 2026-05-04 19:35 | ASOS | 63 | 46 | 55 | 29.80 | 9 | S | |||
| New York LGA | NY | 2026-05-04 19:30 | ASOS | 63 | 46 | 55 | 29.80 | 7 | S | |||
| New York LGA | NY | 2026-05-04 19:25 | ASOS | 63 | 46 | 55 | 29.80 | 10 | S | |||
| New York LGA | NY | 2026-05-04 19:20 | ASOS | 63 | 46 | 55 | 29.80 | 10 | S | |||
| New York LGA | NY | 2026-05-04 18:51 | ASOS | 63 | 47 | 56 | 29.79 | 12 | S | |||
| New York LGA | NY | 2026-05-04 18:25 | ASOS | 63 | 46 | 55 | 29.79 | 18 | SSE | |||
| New York LGA | NY | 2026-05-04 18:20 | ASOS | 64 | 46 | 52 | 29.79 | 17 | SSE | |||
| New York LGA | NY | 2026-05-04 17:51 | ASOS | 65 | 46 | 50 | 29.80 | 18 | SSE | |||
| New York LGA | NY | 2026-05-04 15:30 | ASOS | 72 | 36 | 27 | 29.81 | 16 | SSW | |||
| New York LGA | NY | 2026-05-04 17:35 | ASOS | 64 | 46 | 52 | 29.80 | 18 | SSE | |||
| New York LGA | NY | 2026-05-04 17:25 | ASOS | 64 | 46 | 52 | 29.80 | 20 | SSE | |||
| New York LGA | NY | 2026-05-04 17:20 | ASOS | 66 | 46 | 49 | 29.80 | 18 | SSE | |||
| New York LGA | NY | 2026-05-04 17:15 | ASOS | 66 | 45 | 46 | 29.80 | 20 | SSE | |||
| New York LGA | NY | 2026-05-04 16:51 | ASOS | 68 | 45 | 43 | 29.80 | 15 | S | |||
| New York LGA | NY | 2026-05-04 16:35 | ASOS | 68 | 45 | 43 | 29.80 | 16 | S | |||
| New York LGA | NY | 2026-05-04 16:25 | ASOS | 70 | 45 | 40 | 29.80 | 20 | SSE | |||
| New York LGA | NY | 2026-05-04 16:20 | ASOS | 70 | 45 | 40 | 29.80 | 16 | SSE | |||
| New York LGA | NY | 2026-05-04 16:15 | ASOS | 70 | 45 | 40 | 29.80 | 14 | SSE | |||
| New York LGA | NY | 2026-05-04 16:10 | ASOS | 70 | 45 | 40 | 29.80 | 15 | SSE | |||
| New York LGA | NY | 2026-05-04 16:05 | ASOS | 70 | 45 | 40 | 29.80 | 15 | S | |||
| New York LGA | NY | 2026-05-04 16:00 | ASOS | 70 | 45 | 40 | 29.80 | 18 | S | |||
| New York LGA | NY | 2026-05-04 15:51 | ASOS | 70 | 44 | 39 | 29.81 | 16 | S | |||
| New York LGA | NY | 2026-05-04 15:35 | ASOS | 72 | 34 | 25 | 29.81 | 17 | SSW | |||
| New York LGA | NY | 2026-05-04 08:35 | ASOS | 57 | 37 | 47 | 29.94 | 13 | WSW | |||
| New York LGA | NY | 2026-05-04 08:25 | ASOS | 55 | 37 | 51 | 29.94 | 14 | SW | |||
| New York LGA | NY | 2026-05-03 21:40 | ASOS | 59 | 23 | 25 | 29.88 | 6 | WSW | |||
| New York LGA | NY | 2026-05-04 00:30 | ASOS | 55 | 28 | 35 | 29.89 | 9 | SW | |||
| New York LGA | NY | 2026-05-04 02:51 | ASOS | 57 | 27 | 31 | 29.91 | 14 | WSW | |||
| New York LGA | NY | 2026-05-04 02:35 | ASOS | 55 | 28 | 35 | 29.90 | 14 | WSW | |||
| New York LGA | NY | 2026-05-04 02:30 | ASOS | 55 | 28 | 35 | 29.91 | 14 | WSW | |||
| New York LGA | NY | 2026-05-04 02:25 | ASOS | 55 | 28 | 35 | 29.91 | 14 | WSW | |||
| New York LGA | NY | 2026-05-04 02:20 | ASOS | 55 | 28 | 35 | 29.91 | 16 | WSW | |||
| New York LGA | NY | 2026-05-04 02:15 | ASOS | 55 | 26 | 33 | 29.91 | 14 | WSW | |||
| New York LGA | NY | 2026-05-04 01:51 | ASOS | 56 | 28 | 34 | 29.91 | 14 | SW | |||
| New York LGA | NY | 2026-05-04 01:35 | ASOS | 55 | 28 | 35 | 29.91 | 10 | WSW | |||
| New York LGA | NY | 2026-05-04 01:30 | ASOS | 55 | 28 | 35 | 29.90 | 12 | SW | |||
| New York LGA | NY | 2026-05-04 01:25 | ASOS | 55 | 28 | 35 | 29.90 | 15 | WSW | |||
| New York LGA | NY | 2026-05-04 01:20 | ASOS | 55 | 28 | 35 | 29.90 | 13 | SW | |||
| New York LGA | NY | 2026-05-04 00:51 | ASOS | 56 | 28 | 34 | 29.90 | 9 | SW | |||
| New York LGA | NY | 2026-05-04 00:40 | ASOS | 55 | 28 | 35 | 29.90 | 10 | SW | |||
| New York LGA | NY | 2026-05-04 00:35 | ASOS | 55 | 28 | 35 | 29.90 | 9 | SW | |||
| New York LGA | NY | 2026-05-04 00:25 | ASOS | 55 | 28 | 35 | 29.89 | 10 | SSW | |||
| New York LGA | NY | 2026-05-04 03:20 | ASOS | 55 | 28 | 35 | 29.91 | 12 | WSW | |||
| New York LGA | NY | 2026-05-04 00:20 | ASOS | 55 | 26 | 33 | 29.89 | 9 | SSW | |||
| New York LGA | NY | 2026-05-04 00:15 | ASOS | 57 | 26 | 31 | 29.89 | 8 | SW | |||
| New York LGA | NY | 2026-05-03 23:51 | ASOS | 57 | 27 | 31 | 29.89 | 9 | SW | |||
| New York LGA | NY | 2026-05-03 23:40 | ASOS | 57 | 26 | 31 | 29.89 | 8 | SSW | |||
| New York LGA | NY | 2026-05-03 23:35 | ASOS | 57 | 26 | 31 | 29.89 | 8 | SW | |||
| New York LGA | NY | 2026-05-03 23:30 | ASOS | 57 | 26 | 31 | 29.89 | 8 | SW | |||
| New York LGA | NY | 2026-05-03 23:25 | ASOS | 57 | 26 | 31 | 29.89 | 8 | SW | |||
| New York LGA | NY | 2026-05-03 23:20 | ASOS | 57 | 26 | 31 | 29.89 | 8 | SW | |||
| New York LGA | NY | 2026-05-03 23:15 | ASOS | 57 | 26 | 31 | 29.89 | 8 | SW | |||
| New York LGA | NY | 2026-05-03 22:51 | ASOS | 58 | 25 | 28 | 29.89 | 9 | SW | |||
| New York LGA | NY | 2026-05-03 22:30 | ASOS | 59 | 25 | 27 | 29.89 | 9 | SW | |||
| New York LGA | NY | 2026-05-03 22:25 | ASOS | 59 | 25 | 27 | 29.89 | 6 | SSW | |||
| New York LGA | NY | 2026-05-03 22:20 | ASOS | 59 | 25 | 27 | 29.89 | 7 | SW | |||
| New York LGA | NY | 2026-05-03 21:51 | ASOS | 59 | 23 | 25 | 29.89 | 9 | WSW | |||
| New York LGA | NY | 2026-05-04 03:15 | ASOS | 55 | 28 | 35 | 29.91 | 13 | WSW | |||
| New York LGA | NY | 2026-05-04 03:25 | ASOS | 55 | 28 | 35 | 29.91 | 13 | WSW | |||
| New York LGA | NY | 2026-05-04 08:20 | ASOS | 55 | 37 | 51 | 29.94 | 14 | SW | |||
| New York LGA | NY | 2026-05-04 05:40 | ASOS | 52 | 30 | 43 | 29.93 | 13 | SSW | |||
| New York LGA | NY | 2026-05-04 08:15 | ASOS | 55 | 37 | 51 | 29.94 | 13 | SW | |||
| New York LGA | NY | 2026-05-04 07:51 | ASOS | 54 | 36 | 50 | 29.94 | 15 | SW | |||
| New York LGA | NY | 2026-05-04 07:35 | ASOS | 54 | 35 | 50 | 29.94 | 16 | SW | |||
| New York LGA | NY | 2026-05-04 07:30 | ASOS | 54 | 35 | 50 | 29.94 | 15 | SW | |||
| New York LGA | NY | 2026-05-04 07:25 | ASOS | 54 | 35 | 50 | 29.94 | 14 | SW | |||
| New York LGA | NY | 2026-05-04 07:20 | ASOS | 54 | 35 | 50 | 29.94 | 15 | SW | |||
| New York LGA | NY | 2026-05-04 07:15 | ASOS | 54 | 35 | 50 | 29.94 | 14 | SW | |||
| New York LGA | NY | 2026-05-04 06:51 | ASOS | 53 | 31 | 43 | 29.94 | 10 | SW | |||
| New York LGA | NY | 2026-05-04 06:35 | ASOS | 52 | 30 | 43 | 29.94 | 8 | SW | |||
| New York LGA | NY | 2026-05-04 06:30 | ASOS | 52 | 30 | 43 | 29.94 | 9 | SW | |||
| New York LGA | NY | 2026-05-04 06:25 | ASOS | 52 | 30 | 43 | 29.94 | 9 | SW | |||
| New York LGA | NY | 2026-05-04 06:20 | ASOS | 52 | 30 | 43 | 29.94 | 9 | SW | |||
| New York LGA | NY | 2026-05-04 06:15 | ASOS | 52 | 30 | 43 | 29.94 | 9 | SW | |||
| New York LGA | NY | 2026-05-04 05:51 | ASOS | 52 | 30 | 43 | 29.94 | 12 | SSW | |||
| New York LGA | NY | 2026-05-04 05:35 | ASOS | 52 | 30 | 43 | 29.93 | 12 | SSW | |||
| New York LGA | NY | 2026-05-04 03:30 | ASOS | 55 | 28 | 35 | 29.91 | 13 | WSW | |||
| New York LGA | NY | 2026-05-04 05:30 | ASOS | 52 | 30 | 43 | 29.93 | 12 | SSW | |||
| New York LGA | NY | 2026-05-04 05:25 | ASOS | 52 | 30 | 43 | 29.92 | 9 | SSW | |||
| New York LGA | NY | 2026-05-04 05:20 | ASOS | 54 | 30 | 41 | 29.93 | 9 | SSW | |||
| New York LGA | NY | 2026-05-04 05:15 | ASOS | 54 | 30 | 41 | 29.93 | 10 | SSW | |||
| New York LGA | NY | 2026-05-04 05:10 | ASOS | 54 | 30 | 41 | 29.93 | 10 | SSW | |||
| New York LGA | NY | 2026-05-04 04:51 | ASOS | 54 | 28 | 37 | 29.93 | 12 | SW | |||
| New York LGA | NY | 2026-05-04 04:35 | ASOS | 55 | 28 | 35 | 29.92 | 8 | SW | |||
| New York LGA | NY | 2026-05-04 04:30 | ASOS | 55 | 28 | 35 | 29.92 | 10 | SW | |||
| New York LGA | NY | 2026-05-04 04:25 | ASOS | 55 | 28 | 35 | 29.92 | 10 | SW | |||
| New York LGA | NY | 2026-05-04 04:20 | ASOS | 55 | 28 | 35 | 29.92 | 10 | SW | |||
| New York LGA | NY | 2026-05-04 04:15 | ASOS | 55 | 28 | 35 | 29.92 | 9 | WSW | |||
| New York LGA | NY | 2026-05-04 04:10 | ASOS | 55 | 28 | 35 | 29.92 | 10 | SW | |||
| New York LGA | NY | 2026-05-04 04:00 | ASOS | 55 | 28 | 35 | 29.92 | 12 | SW | |||
| New York LGA | NY | 2026-05-04 03:51 | ASOS | 55 | 28 | 35 | 29.92 | 12 | WSW | |||
| New York LGA | NY | 2026-05-04 21:20 | ASOS | 64 | 44 | 49 | 29.84 | 9 | SSW |
data collection created in 0.020088911056519 (queried in 0.004494) rendered in: 0.00026106834411621

